sensor_id;sensor_type;location;lat;lon;timestamp;P1;durP1;ratioP1;P2;durP2;ratioP2
59790;SDS011;47431;51.640;5.554;2023-10-08T00:01:15;14.52;;;6.63;;
59790;SDS011;47431;51.640;5.554;2023-10-08T00:03:44;16.65;;;6.20;;
59790;SDS011;47431;51.640;5.554;2023-10-08T00:06:14;25.30;;;7.43;;
59790;SDS011;47431;51.640;5.554;2023-10-08T00:08:40;14.65;;;6.13;;
59790;SDS011;47431;51.640;5.554;2023-10-08T00:11:05;14.90;;;5.93;;
59790;SDS011;47431;51.640;5.554;2023-10-08T00:13:32;16.98;;;5.85;;
59790;SDS011;47431;51.640;5.554;2023-10-08T00:16:05;21.02;;;6.53;;
59790;SDS011;47431;51.640;5.554;2023-10-08T00:18:34;17.63;;;6.18;;
59790;SDS011;47431;51.640;5.554;2023-10-08T00:21:00;14.27;;;6.32;;
59790;SDS011;47431;51.640;5.554;2023-10-08T00:23:35;15.63;;;6.20;;
59790;SDS011;47431;51.640;5.554;2023-10-08T00:26:06;16.50;;;5.97;;
59790;SDS011;47431;51.640;5.554;2023-10-08T00:28:35;14.93;;;6.03;;
59790;SDS011;47431;51.640;5.554;2023-10-08T00:31:04;12.68;;;5.45;;
59790;SDS011;47431;51.640;5.554;2023-10-08T00:33:51;16.02;;;7.47;;
59790;SDS011;47431;51.640;5.554;2023-10-08T00:36:17;13.98;;;5.78;;
59790;SDS011;47431;51.640;5.554;2023-10-08T00:38:44;19.30;;;5.65;;
59790;SDS011;47431;51.640;5.554;2023-10-08T00:41:13;14.82;;;5.82;;
59790;SDS011;47431;51.640;5.554;2023-10-08T00:43:46;17.25;;;6.63;;
59790;SDS011;47431;51.640;5.554;2023-10-08T00:46:12;15.25;;;6.00;;
59790;SDS011;47431;51.640;5.554;2023-10-08T00:48:54;15.20;;;6.45;;
59790;SDS011;47431;51.640;5.554;2023-10-08T00:51:21;19.55;;;6.30;;
59790;SDS011;47431;51.640;5.554;2023-10-08T00:53:49;20.08;;;7.88;;
59790;SDS011;47431;51.640;5.554;2023-10-08T00:56:27;15.07;;;6.38;;
59790;SDS011;47431;51.640;5.554;2023-10-08T00:59:32;15.30;;;7.75;;
59790;SDS011;47431;51.640;5.554;2023-10-08T01:02:10;15.15;;;7.15;;
59790;SDS011;47431;51.640;5.554;2023-10-08T01:04:40;14.77;;;6.75;;
59790;SDS011;47431;51.640;5.554;2023-10-08T01:07:09;15.82;;;5.88;;
59790;SDS011;47431;51.640;5.554;2023-10-08T01:09:40;17.77;;;6.47;;
59790;SDS011;47431;51.640;5.554;2023-10-08T01:14:40;18.35;;;7.07;;
59790;SDS011;47431;51.640;5.554;2023-10-08T01:17:09;20.20;;;6.82;;
59790;SDS011;47431;51.640;5.554;2023-10-08T01:19:39;15.73;;;6.83;;
59790;SDS011;47431;51.640;5.554;2023-10-08T01:22:07;14.82;;;6.43;;
59790;SDS011;47431;51.640;5.554;2023-10-08T01:24:33;18.38;;;7.85;;
59790;SDS011;47431;51.640;5.554;2023-10-08T01:27:00;15.48;;;6.68;;
59790;SDS011;47431;51.640;5.554;2023-10-08T01:29:29;19.08;;;7.88;;
59790;SDS011;47431;51.640;5.554;2023-10-08T01:31:56;16.80;;;7.00;;
59790;SDS011;47431;51.640;5.554;2023-10-08T01:34:22;16.20;;;7.05;;
59790;SDS011;47431;51.640;5.554;2023-10-08T01:36:53;16.98;;;7.57;;
59790;SDS011;47431;51.640;5.554;2023-10-08T01:39:18;20.55;;;6.63;;
59790;SDS011;47431;51.640;5.554;2023-10-08T01:41:44;13.90;;;7.03;;
59790;SDS011;47431;51.640;5.554;2023-10-08T01:44:11;14.18;;;6.68;;
59790;SDS011;47431;51.640;5.554;2023-10-08T01:46:37;15.10;;;7.68;;
59790;SDS011;47431;51.640;5.554;2023-10-08T01:49:05;15.25;;;7.00;;
59790;SDS011;47431;51.640;5.554;2023-10-08T01:51:38;17.30;;;7.75;;
59790;SDS011;47431;51.640;5.554;2023-10-08T01:54:06;20.33;;;8.20;;
59790;SDS011;47431;51.640;5.554;2023-10-08T01:56:37;25.45;;;7.43;;
59790;SDS011;47431;51.640;5.554;2023-10-08T01:59:06;25.17;;;8.30;;
59790;SDS011;47431;51.640;5.554;2023-10-08T02:01:33;18.83;;;7.53;;
59790;SDS011;47431;51.640;5.554;2023-10-08T02:03:59;14.90;;;6.63;;
59790;SDS011;47431;51.640;5.554;2023-10-08T02:06:24;16.50;;;6.90;;
59790;SDS011;47431;51.640;5.554;2023-10-08T02:08:50;21.88;;;9.35;;
59790;SDS011;47431;51.640;5.554;2023-10-08T02:11:15;14.95;;;6.82;;
59790;SDS011;47431;51.640;5.554;2023-10-08T02:13:40;17.17;;;6.80;;
59790;SDS011;47431;51.640;5.554;2023-10-08T02:16:07;16.20;;;7.90;;
59790;SDS011;47431;51.640;5.554;2023-10-08T02:18:32;13.30;;;6.38;;
59790;SDS011;47431;51.640;5.554;2023-10-08T02:20:58;11.85;;;7.53;;
59790;SDS011;47431;51.640;5.554;2023-10-08T02:23:24;13.90;;;7.85;;
59790;SDS011;47431;51.640;5.554;2023-10-08T02:25:49;19.00;;;7.32;;
59790;SDS011;47431;51.640;5.554;2023-10-08T02:28:15;21.75;;;7.50;;
59790;SDS011;47431;51.640;5.554;2023-10-08T02:30:41;19.25;;;7.97;;
59790;SDS011;47431;51.640;5.554;2023-10-08T02:33:07;15.98;;;8.00;;
59790;SDS011;47431;51.640;5.554;2023-10-08T02:35:42;27.55;;;8.55;;
59790;SDS011;47431;51.640;5.554;2023-10-08T02:38:12;19.83;;;8.77;;
59790;SDS011;47431;51.640;5.554;2023-10-08T02:40:41;14.40;;;6.78;;
59790;SDS011;47431;51.640;5.554;2023-10-08T02:43:10;15.32;;;6.32;;
59790;SDS011;47431;51.640;5.554;2023-10-08T02:45:37;20.05;;;7.70;;
59790;SDS011;47431;51.640;5.554;2023-10-08T02:48:06;15.43;;;6.35;;
59790;SDS011;47431;51.640;5.554;2023-10-08T02:50:37;19.15;;;7.63;;
59790;SDS011;47431;51.640;5.554;2023-10-08T02:53:04;16.77;;;7.30;;
59790;SDS011;47431;51.640;5.554;2023-10-08T02:55:36;17.63;;;7.20;;
59790;SDS011;47431;51.640;5.554;2023-10-08T02:58:07;15.73;;;8.57;;
59790;SDS011;47431;51.640;5.554;2023-10-08T03:00:43;17.15;;;7.85;;
59790;SDS011;47431;51.640;5.554;2023-10-08T03:03:11;19.83;;;7.32;;
59790;SDS011;47431;51.640;5.554;2023-10-08T03:05:53;15.77;;;7.55;;
59790;SDS011;47431;51.640;5.554;2023-10-08T03:08:21;21.70;;;7.97;;
59790;SDS011;47431;51.640;5.554;2023-10-08T03:10:48;22.70;;;9.32;;
59790;SDS011;47431;51.640;5.554;2023-10-08T03:13:28;19.77;;;7.13;;
59790;SDS011;47431;51.640;5.554;2023-10-08T03:15:53;16.02;;;7.28;;
59790;SDS011;47431;51.640;5.554;2023-10-08T03:18:28;20.75;;;7.80;;
59790;SDS011;47431;51.640;5.554;2023-10-08T03:21:01;17.92;;;7.20;;
59790;SDS011;47431;51.640;5.554;2023-10-08T03:23:29;24.85;;;8.27;;
59790;SDS011;47431;51.640;5.554;2023-10-08T03:26:04;28.10;;;8.45;;
59790;SDS011;47431;51.640;5.554;2023-10-08T03:28:36;22.05;;;7.88;;
59790;SDS011;47431;51.640;5.554;2023-10-08T03:31:02;18.02;;;6.95;;
59790;SDS011;47431;51.640;5.554;2023-10-08T03:33:31;25.42;;;9.15;;
59790;SDS011;47431;51.640;5.554;2023-10-08T03:36:05;22.60;;;8.77;;
59790;SDS011;47431;51.640;5.554;2023-10-08T03:38:36;15.60;;;7.32;;
59790;SDS011;47431;51.640;5.554;2023-10-08T03:41:16;13.82;;;7.63;;
59790;SDS011;47431;51.640;5.554;2023-10-08T03:43:54;31.98;;;11.32;;
59790;SDS011;47431;51.640;5.554;2023-10-08T03:46:27;17.15;;;8.65;;
59790;SDS011;47431;51.640;5.554;2023-10-08T03:48:53;17.05;;;8.80;;
59790;SDS011;47431;51.640;5.554;2023-10-08T03:51:22;25.65;;;9.75;;
59790;SDS011;47431;51.640;5.554;2023-10-08T03:53:52;17.05;;;8.35;;
59790;SDS011;47431;51.640;5.554;2023-10-08T03:58:57;17.85;;;9.30;;
59790;SDS011;47431;51.640;5.554;2023-10-08T04:01:25;28.50;;;11.05;;
59790;SDS011;47431;51.640;5.554;2023-10-08T04:03:55;23.00;;;9.50;;
59790;SDS011;47431;51.640;5.554;2023-10-08T04:06:24;20.92;;;10.32;;
59790;SDS011;47431;51.640;5.554;2023-10-08T04:14:19;15.45;;;9.15;;
59790;SDS011;47431;51.640;5.554;2023-10-08T04:16:45;18.45;;;9.35;;
59790;SDS011;47431;51.640;5.554;2023-10-08T04:19:11;26.83;;;10.07;;
59790;SDS011;47431;51.640;5.554;2023-10-08T04:21:37;22.30;;;10.32;;
59790;SDS011;47431;51.640;5.554;2023-10-08T04:24:05;22.60;;;11.23;;
59790;SDS011;47431;51.640;5.554;2023-10-08T04:26:31;21.15;;;9.00;;
59790;SDS011;47431;51.640;5.554;2023-10-08T04:28:57;20.08;;;10.23;;
59790;SDS011;47431;51.640;5.554;2023-10-08T04:31:27;18.55;;;8.93;;
59790;SDS011;47431;51.640;5.554;2023-10-08T04:34:03;18.40;;;10.20;;
59790;SDS011;47431;51.640;5.554;2023-10-08T04:36:35;19.27;;;10.68;;
59790;SDS011;47431;51.640;5.554;2023-10-08T04:39:03;22.13;;;9.88;;
59790;SDS011;47431;51.640;5.554;2023-10-08T04:41:41;19.05;;;9.40;;
59790;SDS011;47431;51.640;5.554;2023-10-08T04:44:10;18.80;;;9.30;;
59790;SDS011;47431;51.640;5.554;2023-10-08T04:46:41;17.15;;;9.68;;
59790;SDS011;47431;51.640;5.554;2023-10-08T04:49:15;18.42;;;9.20;;
59790;SDS011;47431;51.640;5.554;2023-10-08T04:52:00;23.17;;;9.65;;
59790;SDS011;47431;51.640;5.554;2023-10-08T04:54:38;21.45;;;10.05;;
59790;SDS011;47431;51.640;5.554;2023-10-08T04:57:05;17.58;;;9.18;;
59790;SDS011;47431;51.640;5.554;2023-10-08T04:59:31;22.42;;;11.02;;
59790;SDS011;47431;51.640;5.554;2023-10-08T05:02:01;16.05;;;10.40;;
59790;SDS011;47431;51.640;5.554;2023-10-08T05:04:48;17.73;;;8.77;;
59790;SDS011;47431;51.640;5.554;2023-10-08T05:07:18;17.50;;;8.40;;
59790;SDS011;47431;51.640;5.554;2023-10-08T05:10:06;16.20;;;8.93;;
59790;SDS011;47431;51.640;5.554;2023-10-08T05:12:32;21.15;;;9.80;;
59790;SDS011;47431;51.640;5.554;2023-10-08T05:14:58;22.70;;;11.05;;
59790;SDS011;47431;51.640;5.554;2023-10-08T05:17:40;18.75;;;9.70;;
59790;SDS011;47431;51.640;5.554;2023-10-08T05:20:14;25.38;;;10.43;;
59790;SDS011;47431;51.640;5.554;2023-10-08T05:23:10;21.88;;;8.75;;
59790;SDS011;47431;51.640;5.554;2023-10-08T05:25:47;23.33;;;10.50;;
59790;SDS011;47431;51.640;5.554;2023-10-08T05:28:32;16.63;;;9.85;;
59790;SDS011;47431;51.640;5.554;2023-10-08T05:31:10;21.08;;;9.65;;
59790;SDS011;47431;51.640;5.554;2023-10-08T05:33:36;14.55;;;10.07;;
59790;SDS011;47431;51.640;5.554;2023-10-08T05:36:25;15.55;;;10.23;;
59790;SDS011;47431;51.640;5.554;2023-10-08T05:39:00;20.48;;;11.77;;
59790;SDS011;47431;51.640;5.554;2023-10-08T05:41:29;29.85;;;11.68;;
59790;SDS011;47431;51.640;5.554;2023-10-08T05:44:05;27.90;;;13.18;;
59790;SDS011;47431;51.640;5.554;2023-10-08T05:46:48;24.35;;;11.82;;
59790;SDS011;47431;51.640;5.554;2023-10-08T05:49:20;25.13;;;10.65;;
59790;SDS011;47431;51.640;5.554;2023-10-08T05:52:03;27.58;;;11.63;;
59790;SDS011;47431;51.640;5.554;2023-10-08T05:54:29;21.67;;;11.02;;
59790;SDS011;47431;51.640;5.554;2023-10-08T05:56:59;24.15;;;11.20;;
59790;SDS011;47431;51.640;5.554;2023-10-08T06:05:03;23.10;;;10.73;;
59790;SDS011;47431;51.640;5.554;2023-10-08T06:07:42;23.48;;;12.88;;
59790;SDS011;47431;51.640;5.554;2023-10-08T06:10:18;16.05;;;11.10;;
59790;SDS011;47431;51.640;5.554;2023-10-08T06:15:36;21.48;;;11.38;;
59790;SDS011;47431;51.640;5.554;2023-10-08T06:20:54;24.50;;;12.18;;
59790;SDS011;47431;51.640;5.554;2023-10-08T06:23:21;22.23;;;11.82;;
59790;SDS011;47431;51.640;5.554;2023-10-08T06:25:48;18.00;;;12.30;;
59790;SDS011;47431;51.640;5.554;2023-10-08T06:28:22;22.38;;;12.00;;
59790;SDS011;47431;51.640;5.554;2023-10-08T06:30:50;20.83;;;12.80;;
59790;SDS011;47431;51.640;5.554;2023-10-08T06:33:22;20.48;;;13.07;;
59790;SDS011;47431;51.640;5.554;2023-10-08T06:36:07;21.20;;;12.55;;
59790;SDS011;47431;51.640;5.554;2023-10-08T06:38:47;22.70;;;13.10;;
59790;SDS011;47431;51.640;5.554;2023-10-08T06:41:16;24.17;;;13.00;;
59790;SDS011;47431;51.640;5.554;2023-10-08T06:43:45;28.38;;;13.88;;
59790;SDS011;47431;51.640;5.554;2023-10-08T06:46:27;30.52;;;13.18;;
59790;SDS011;47431;51.640;5.554;2023-10-08T06:48:54;21.33;;;12.98;;
59790;SDS011;47431;51.640;5.554;2023-10-08T06:51:19;22.83;;;13.65;;
59790;SDS011;47431;51.640;5.554;2023-10-08T06:53:46;20.27;;;12.77;;
59790;SDS011;47431;51.640;5.554;2023-10-08T06:56:13;19.33;;;12.63;;
59790;SDS011;47431;51.640;5.554;2023-10-08T06:58:40;22.85;;;12.60;;
59790;SDS011;47431;51.640;5.554;2023-10-08T07:01:13;21.67;;;12.23;;
59790;SDS011;47431;51.640;5.554;2023-10-08T07:03:46;25.38;;;12.68;;
59790;SDS011;47431;51.640;5.554;2023-10-08T07:06:14;20.75;;;12.32;;
59790;SDS011;47431;51.640;5.554;2023-10-08T07:08:51;27.30;;;13.70;;
59790;SDS011;47431;51.640;5.554;2023-10-08T07:11:20;21.48;;;12.63;;
59790;SDS011;47431;51.640;5.554;2023-10-08T07:13:46;26.95;;;14.10;;
59790;SDS011;47431;51.640;5.554;2023-10-08T07:16:12;21.00;;;12.00;;
59790;SDS011;47431;51.640;5.554;2023-10-08T07:18:38;18.45;;;11.98;;
59790;SDS011;47431;51.640;5.554;2023-10-08T07:21:04;24.83;;;12.55;;
59790;SDS011;47431;51.640;5.554;2023-10-08T07:23:37;23.10;;;12.88;;
59790;SDS011;47431;51.640;5.554;2023-10-08T07:26:18;20.73;;;12.45;;
59790;SDS011;47431;51.640;5.554;2023-10-08T07:28:49;15.88;;;11.10;;
59790;SDS011;47431;51.640;5.554;2023-10-08T07:31:17;23.67;;;13.95;;
59790;SDS011;47431;51.640;5.554;2023-10-08T07:33:47;23.58;;;13.10;;
59790;SDS011;47431;51.640;5.554;2023-10-08T07:36:24;16.42;;;12.32;;
59790;SDS011;47431;51.640;5.554;2023-10-08T07:38:51;18.25;;;10.90;;
59790;SDS011;47431;51.640;5.554;2023-10-08T07:41:17;26.33;;;12.45;;
59790;SDS011;47431;51.640;5.554;2023-10-08T07:43:45;27.38;;;12.00;;
59790;SDS011;47431;51.640;5.554;2023-10-08T07:46:18;23.70;;;12.13;;
59790;SDS011;47431;51.640;5.554;2023-10-08T07:48:43;21.83;;;12.95;;
59790;SDS011;47431;51.640;5.554;2023-10-08T07:51:09;29.08;;;12.70;;
59790;SDS011;47431;51.640;5.554;2023-10-08T07:53:34;19.23;;;11.80;;
59790;SDS011;47431;51.640;5.554;2023-10-08T07:56:03;21.98;;;13.35;;
59790;SDS011;47431;51.640;5.554;2023-10-08T07:58:31;20.65;;;11.88;;
59790;SDS011;47431;51.640;5.554;2023-10-08T08:01:02;21.42;;;14.02;;
59790;SDS011;47431;51.640;5.554;2023-10-08T08:03:28;23.88;;;13.68;;
59790;SDS011;47431;51.640;5.554;2023-10-08T08:05:54;26.45;;;12.25;;
59790;SDS011;47431;51.640;5.554;2023-10-08T08:08:19;21.42;;;11.57;;
59790;SDS011;47431;51.640;5.554;2023-10-08T08:10:46;19.42;;;12.50;;
59790;SDS011;47431;51.640;5.554;2023-10-08T08:13:12;22.27;;;12.55;;
59790;SDS011;47431;51.640;5.554;2023-10-08T08:15:45;19.88;;;11.90;;
59790;SDS011;47431;51.640;5.554;2023-10-08T08:18:16;22.73;;;12.80;;
59790;SDS011;47431;51.640;5.554;2023-10-08T08:20:47;26.30;;;13.85;;
59790;SDS011;47431;51.640;5.554;2023-10-08T08:23:13;27.35;;;13.35;;
59790;SDS011;47431;51.640;5.554;2023-10-08T08:25:39;24.30;;;11.75;;
59790;SDS011;47431;51.640;5.554;2023-10-08T08:28:31;32.50;;;14.70;;
59790;SDS011;47431;51.640;5.554;2023-10-08T08:31:01;38.45;;;14.23;;
59790;SDS011;47431;51.640;5.554;2023-10-08T08:33:29;27.67;;;13.57;;
59790;SDS011;47431;51.640;5.554;2023-10-08T08:36:17;41.90;;;16.35;;
59790;SDS011;47431;51.640;5.554;2023-10-08T08:38:42;36.17;;;15.00;;
59790;SDS011;47431;51.640;5.554;2023-10-08T08:41:12;38.35;;;16.75;;
59790;SDS011;47431;51.640;5.554;2023-10-08T08:43:37;33.25;;;14.68;;
59790;SDS011;47431;51.640;5.554;2023-10-08T08:46:09;35.30;;;16.85;;
59790;SDS011;47431;51.640;5.554;2023-10-08T08:48:39;51.78;;;16.48;;
59790;SDS011;47431;51.640;5.554;2023-10-08T08:51:05;29.58;;;14.10;;
59790;SDS011;47431;51.640;5.554;2023-10-08T08:53:41;30.40;;;17.00;;
59790;SDS011;47431;51.640;5.554;2023-10-08T08:56:07;42.78;;;15.32;;
59790;SDS011;47431;51.640;5.554;2023-10-08T08:58:37;36.63;;;14.15;;
59790;SDS011;47431;51.640;5.554;2023-10-08T09:01:04;37.95;;;15.02;;
59790;SDS011;47431;51.640;5.554;2023-10-08T09:03:33;31.45;;;13.35;;
59790;SDS011;47431;51.640;5.554;2023-10-08T09:05:58;31.55;;;14.93;;
59790;SDS011;47431;51.640;5.554;2023-10-08T09:08:28;27.45;;;13.30;;
59790;SDS011;47431;51.640;5.554;2023-10-08T09:10:58;33.70;;;15.30;;
59790;SDS011;47431;51.640;5.554;2023-10-08T09:13:26;23.05;;;13.52;;
59790;SDS011;47431;51.640;5.554;2023-10-08T09:15:53;37.85;;;15.35;;
59790;SDS011;47431;51.640;5.554;2023-10-08T09:18:23;29.80;;;12.80;;
59790;SDS011;47431;51.640;5.554;2023-10-08T09:20:52;34.55;;;14.68;;
59790;SDS011;47431;51.640;5.554;2023-10-08T09:23:17;41.75;;;13.63;;
59790;SDS011;47431;51.640;5.554;2023-10-08T09:25:44;33.03;;;14.20;;
59790;SDS011;47431;51.640;5.554;2023-10-08T09:28:14;27.58;;;12.35;;
59790;SDS011;47431;51.640;5.554;2023-10-08T09:30:41;26.33;;;11.60;;
59790;SDS011;47431;51.640;5.554;2023-10-08T09:33:11;22.48;;;11.35;;
59790;SDS011;47431;51.640;5.554;2023-10-08T09:38:11;22.48;;;11.65;;
59790;SDS011;47431;51.640;5.554;2023-10-08T09:40:37;27.25;;;13.30;;
59790;SDS011;47431;51.640;5.554;2023-10-08T09:43:04;21.30;;;11.68;;
59790;SDS011;47431;51.640;5.554;2023-10-08T09:45:30;22.42;;;11.68;;
59790;SDS011;47431;51.640;5.554;2023-10-08T09:47:55;24.30;;;11.50;;
59790;SDS011;47431;51.640;5.554;2023-10-08T09:50:24;25.40;;;11.77;;
59790;SDS011;47431;51.640;5.554;2023-10-08T09:55:52;21.05;;;11.43;;
59790;SDS011;47431;51.640;5.554;2023-10-08T09:58:19;17.73;;;10.35;;
59790;SDS011;47431;51.640;5.554;2023-10-08T10:00:47;20.27;;;11.15;;
59790;SDS011;47431;51.640;5.554;2023-10-08T10:03:14;21.08;;;10.68;;
59790;SDS011;47431;51.640;5.554;2023-10-08T10:05:39;16.83;;;9.48;;
59790;SDS011;47431;51.640;5.554;2023-10-08T10:08:08;16.50;;;9.23;;
59790;SDS011;47431;51.640;5.554;2023-10-08T10:10:37;12.20;;;8.52;;
59790;SDS011;47431;51.640;5.554;2023-10-08T10:13:08;18.92;;;9.32;;
59790;SDS011;47431;51.640;5.554;2023-10-08T10:15:53;18.25;;;8.32;;
59790;SDS011;47431;51.640;5.554;2023-10-08T10:31:33;13.30;;;6.07;;
59790;SDS011;47431;51.640;5.554;2023-10-08T10:34:07;14.95;;;6.78;;
59790;SDS011;47431;51.640;5.554;2023-10-08T10:38:59;14.85;;;6.85;;
59790;SDS011;47431;51.640;5.554;2023-10-08T10:41:25;12.27;;;6.82;;
59790;SDS011;47431;51.640;5.554;2023-10-08T10:43:52;13.50;;;6.55;;
59790;SDS011;47431;51.640;5.554;2023-10-08T10:46:18;10.60;;;5.88;;
59790;SDS011;47431;51.640;5.554;2023-10-08T10:48:55;14.25;;;6.28;;
59790;SDS011;47431;51.640;5.554;2023-10-08T10:51:43;16.80;;;6.72;;
59790;SDS011;47431;51.640;5.554;2023-10-08T10:54:09;12.48;;;6.18;;
59790;SDS011;47431;51.640;5.554;2023-10-08T10:56:35;14.00;;;6.13;;
59790;SDS011;47431;51.640;5.554;2023-10-08T10:59:08;15.25;;;6.68;;
59790;SDS011;47431;51.640;5.554;2023-10-08T11:01:52;13.52;;;4.97;;
59790;SDS011;47431;51.640;5.554;2023-10-08T11:04:30;11.38;;;4.68;;
59790;SDS011;47431;51.640;5.554;2023-10-08T11:06:56;13.80;;;5.35;;
59790;SDS011;47431;51.640;5.554;2023-10-08T11:09:26;15.57;;;6.38;;
59790;SDS011;47431;51.640;5.554;2023-10-08T11:12:03;9.63;;;5.55;;
59790;SDS011;47431;51.640;5.554;2023-10-08T11:14:42;11.82;;;5.93;;
59790;SDS011;47431;51.640;5.554;2023-10-08T11:17:11;12.98;;;6.95;;
59790;SDS011;47431;51.640;5.554;2023-10-08T11:22:07;13.63;;;5.80;;
59790;SDS011;47431;51.640;5.554;2023-10-08T11:24:40;12.52;;;4.93;;
59790;SDS011;47431;51.640;5.554;2023-10-08T11:27:07;13.88;;;6.20;;
59790;SDS011;47431;51.640;5.554;2023-10-08T11:29:46;13.65;;;6.65;;
59790;SDS011;47431;51.640;5.554;2023-10-08T11:32:14;10.43;;;5.75;;
59790;SDS011;47431;51.640;5.554;2023-10-08T11:34:47;15.13;;;6.90;;
59790;SDS011;47431;51.640;5.554;2023-10-08T11:37:28;12.00;;;5.57;;
59790;SDS011;47431;51.640;5.554;2023-10-08T11:39:55;12.57;;;6.25;;
59790;SDS011;47431;51.640;5.554;2023-10-08T11:42:23;11.80;;;6.55;;
59790;SDS011;47431;51.640;5.554;2023-10-08T11:45:01;12.68;;;6.35;;
59790;SDS011;47431;51.640;5.554;2023-10-08T11:47:46;12.88;;;7.07;;
59790;SDS011;47431;51.640;5.554;2023-10-08T11:50:14;12.07;;;6.55;;
59790;SDS011;47431;51.640;5.554;2023-10-08T11:52:44;15.95;;;6.38;;
59790;SDS011;47431;51.640;5.554;2023-10-08T11:55:11;12.13;;;5.95;;
59790;SDS011;47431;51.640;5.554;2023-10-08T11:57:46;14.05;;;7.28;;
59790;SDS011;47431;51.640;5.554;2023-10-08T12:00:14;14.18;;;6.85;;
59790;SDS011;47431;51.640;5.554;2023-10-08T12:02:50;10.82;;;7.13;;
59790;SDS011;47431;51.640;5.554;2023-10-08T12:05:20;10.23;;;6.20;;
59790;SDS011;47431;51.640;5.554;2023-10-08T12:07:52;18.05;;;8.18;;
59790;SDS011;47431;51.640;5.554;2023-10-08T12:10:22;18.90;;;8.73;;
59790;SDS011;47431;51.640;5.554;2023-10-08T12:12:49;17.05;;;8.57;;
59790;SDS011;47431;51.640;5.554;2023-10-08T12:15:20;10.15;;;8.07;;
59790;SDS011;47431;51.640;5.554;2023-10-08T12:17:46;17.80;;;9.50;;
59790;SDS011;47431;51.640;5.554;2023-10-08T12:20:32;13.48;;;8.73;;
59790;SDS011;47431;51.640;5.554;2023-10-08T12:22:59;13.20;;;8.50;;
59790;SDS011;47431;51.640;5.554;2023-10-08T12:25:24;13.80;;;8.95;;
59790;SDS011;47431;51.640;5.554;2023-10-08T12:27:50;17.45;;;11.45;;
59790;SDS011;47431;51.640;5.554;2023-10-08T12:30:15;14.93;;;10.57;;
59790;SDS011;47431;51.640;5.554;2023-10-08T12:32:41;17.27;;;10.05;;
59790;SDS011;47431;51.640;5.554;2023-10-08T12:35:10;13.30;;;8.27;;
59790;SDS011;47431;51.640;5.554;2023-10-08T12:37:40;14.65;;;8.82;;
59790;SDS011;47431;51.640;5.554;2023-10-08T12:40:09;14.65;;;9.02;;
59790;SDS011;47431;51.640;5.554;2023-10-08T12:42:47;12.60;;;8.50;;
59790;SDS011;47431;51.640;5.554;2023-10-08T12:45:19;13.27;;;8.70;;
59790;SDS011;47431;51.640;5.554;2023-10-08T12:47:51;13.75;;;9.23;;
59790;SDS011;47431;51.640;5.554;2023-10-08T12:50:17;15.43;;;8.82;;
59790;SDS011;47431;51.640;5.554;2023-10-08T12:53:04;13.18;;;8.63;;
59790;SDS011;47431;51.640;5.554;2023-10-08T12:55:30;13.25;;;7.85;;
59790;SDS011;47431;51.640;5.554;2023-10-08T12:57:56;11.30;;;7.57;;
59790;SDS011;47431;51.640;5.554;2023-10-08T13:00:30;11.88;;;7.65;;
59790;SDS011;47431;51.640;5.554;2023-10-08T13:02:56;13.27;;;7.57;;
59790;SDS011;47431;51.640;5.554;2023-10-08T13:05:22;14.70;;;8.07;;
59790;SDS011;47431;51.640;5.554;2023-10-08T13:07:53;13.45;;;7.10;;
59790;SDS011;47431;51.640;5.554;2023-10-08T13:10:22;12.07;;;6.72;;
59790;SDS011;47431;51.640;5.554;2023-10-08T13:12:51;12.88;;;7.60;;
59790;SDS011;47431;51.640;5.554;2023-10-08T13:15:16;12.40;;;7.47;;
59790;SDS011;47431;51.640;5.554;2023-10-08T13:17:42;11.68;;;7.15;;
59790;SDS011;47431;51.640;5.554;2023-10-08T13:20:08;14.60;;;7.35;;
59790;SDS011;47431;51.640;5.554;2023-10-08T13:22:37;12.23;;;6.85;;
59790;SDS011;47431;51.640;5.554;2023-10-08T13:25:03;15.15;;;8.40;;
59790;SDS011;47431;51.640;5.554;2023-10-08T13:27:29;12.90;;;7.75;;
59790;SDS011;47431;51.640;5.554;2023-10-08T13:29:55;11.43;;;8.45;;
59790;SDS011;47431;51.640;5.554;2023-10-08T13:32:21;12.73;;;7.53;;
59790;SDS011;47431;51.640;5.554;2023-10-08T13:34:46;15.45;;;8.82;;
59790;SDS011;47431;51.640;5.554;2023-10-08T13:37:11;12.32;;;7.47;;
59790;SDS011;47431;51.640;5.554;2023-10-08T13:39:39;17.10;;;8.90;;
59790;SDS011;47431;51.640;5.554;2023-10-08T13:42:05;12.27;;;8.18;;
59790;SDS011;47431;51.640;5.554;2023-10-08T13:44:31;15.15;;;8.93;;
59790;SDS011;47431;51.640;5.554;2023-10-08T13:46:56;24.25;;;9.40;;
59790;SDS011;47431;51.640;5.554;2023-10-08T13:49:24;15.07;;;9.23;;
59790;SDS011;47431;51.640;5.554;2023-10-08T13:51:51;14.30;;;10.05;;
59790;SDS011;47431;51.640;5.554;2023-10-08T13:54:21;16.45;;;9.70;;
59790;SDS011;47431;51.640;5.554;2023-10-08T13:56:47;16.20;;;8.65;;
59790;SDS011;47431;51.640;5.554;2023-10-08T13:59:13;23.77;;;10.23;;
59790;SDS011;47431;51.640;5.554;2023-10-08T14:01:40;15.50;;;9.65;;
59790;SDS011;47431;51.640;5.554;2023-10-08T14:04:10;15.63;;;9.50;;
59790;SDS011;47431;51.640;5.554;2023-10-08T14:06:37;19.15;;;9.85;;
59790;SDS011;47431;51.640;5.554;2023-10-08T14:09:05;14.40;;;10.23;;
59790;SDS011;47431;51.640;5.554;2023-10-08T14:11:37;22.30;;;11.82;;
59790;SDS011;47431;51.640;5.554;2023-10-08T14:14:03;20.73;;;11.55;;
59790;SDS011;47431;51.640;5.554;2023-10-08T14:16:35;20.08;;;12.07;;
59790;SDS011;47431;51.640;5.554;2023-10-08T14:19:07;16.90;;;10.90;;
59790;SDS011;47431;51.640;5.554;2023-10-08T14:21:33;19.40;;;10.95;;
59790;SDS011;47431;51.640;5.554;2023-10-08T14:24:05;17.92;;;12.55;;
59790;SDS011;47431;51.640;5.554;2023-10-08T14:26:40;14.10;;;10.30;;
59790;SDS011;47431;51.640;5.554;2023-10-08T14:29:05;21.40;;;13.10;;
59790;SDS011;47431;51.640;5.554;2023-10-08T14:31:36;24.45;;;12.65;;
59790;SDS011;47431;51.640;5.554;2023-10-08T14:34:04;19.88;;;13.52;;
59790;SDS011;47431;51.640;5.554;2023-10-08T14:36:43;22.73;;;13.45;;
59790;SDS011;47431;51.640;5.554;2023-10-08T14:39:27;25.30;;;13.68;;
59790;SDS011;47431;51.640;5.554;2023-10-08T14:42:11;17.23;;;13.07;;
59790;SDS011;47431;51.640;5.554;2023-10-08T14:44:56;20.95;;;13.32;;
59790;SDS011;47431;51.640;5.554;2023-10-08T14:47:21;20.83;;;13.32;;
59790;SDS011;47431;51.640;5.554;2023-10-08T14:49:47;19.42;;;12.43;;
59790;SDS011;47431;51.640;5.554;2023-10-08T14:52:12;23.95;;;13.80;;
59790;SDS011;47431;51.640;5.554;2023-10-08T14:54:38;19.83;;;12.70;;
59790;SDS011;47431;51.640;5.554;2023-10-08T14:57:04;16.15;;;12.38;;
59790;SDS011;47431;51.640;5.554;2023-10-08T14:59:30;22.83;;;14.20;;
59790;SDS011;47431;51.640;5.554;2023-10-08T15:01:57;25.48;;;16.02;;
59790;SDS011;47431;51.640;5.554;2023-10-08T15:04:23;28.17;;;15.40;;
59790;SDS011;47431;51.640;5.554;2023-10-08T15:06:51;22.75;;;15.43;;
59790;SDS011;47431;51.640;5.554;2023-10-08T15:09:16;18.92;;;14.02;;
59790;SDS011;47431;51.640;5.554;2023-10-08T15:14:20;19.38;;;12.80;;
59790;SDS011;47431;51.640;5.554;2023-10-08T15:16:48;17.13;;;12.82;;
59790;SDS011;47431;51.640;5.554;2023-10-08T15:19:20;27.48;;;14.35;;
59790;SDS011;47431;51.640;5.554;2023-10-08T15:21:50;20.90;;;14.18;;
59790;SDS011;47431;51.640;5.554;2023-10-08T15:24:25;19.15;;;13.60;;
59790;SDS011;47431;51.640;5.554;2023-10-08T15:26:51;25.10;;;14.45;;
59790;SDS011;47431;51.640;5.554;2023-10-08T15:29:20;19.10;;;14.88;;
59790;SDS011;47431;51.640;5.554;2023-10-08T15:31:47;22.35;;;14.25;;
59790;SDS011;47431;51.640;5.554;2023-10-08T15:34:14;23.85;;;15.48;;